sensor_id;sensor_type;location;lat;lon;timestamp;P1;durP1;ratioP1;P2;durP2;ratioP2
16286;SDS011;8251;53.568;10.018;2023-05-10T00:01:15;4.37;;;1.73;;
16286;SDS011;8251;53.568;10.018;2023-05-10T00:03:42;3.30;;;2.30;;
16286;SDS011;8251;53.568;10.018;2023-05-10T00:06:08;3.07;;;1.90;;
16286;SDS011;8251;53.568;10.018;2023-05-10T00:08:35;2.77;;;2.27;;
16286;SDS011;8251;53.568;10.018;2023-05-10T00:11:02;2.43;;;1.97;;
16286;SDS011;8251;53.568;10.018;2023-05-10T00:13:29;2.47;;;1.50;;
16286;SDS011;8251;53.568;10.018;2023-05-10T00:15:56;5.23;;;2.17;;
16286;SDS011;8251;53.568;10.018;2023-05-10T00:18:25;6.53;;;2.40;;
16286;SDS011;8251;53.568;10.018;2023-05-10T00:20:52;2.63;;;2.13;;
16286;SDS011;8251;53.568;10.018;2023-05-10T00:23:18;6.50;;;2.30;;
16286;SDS011;8251;53.568;10.018;2023-05-10T00:25:45;4.50;;;2.43;;
16286;SDS011;8251;53.568;10.018;2023-05-10T00:28:12;2.73;;;2.43;;
16286;SDS011;8251;53.568;10.018;2023-05-10T00:30:39;5.13;;;2.53;;
16286;SDS011;8251;53.568;10.018;2023-05-10T00:33:06;2.80;;;2.40;;
16286;SDS011;8251;53.568;10.018;2023-05-10T00:35:34;9.17;;;2.70;;
16286;SDS011;8251;53.568;10.018;2023-05-10T00:38:01;10.17;;;2.53;;
16286;SDS011;8251;53.568;10.018;2023-05-10T00:40:28;2.83;;;2.43;;
16286;SDS011;8251;53.568;10.018;2023-05-10T00:42:55;5.20;;;2.57;;
16286;SDS011;8251;53.568;10.018;2023-05-10T00:45:23;3.77;;;2.40;;
16286;SDS011;8251;53.568;10.018;2023-05-10T00:47:50;2.70;;;2.13;;
16286;SDS011;8251;53.568;10.018;2023-05-10T00:50:20;5.90;;;2.53;;
16286;SDS011;8251;53.568;10.018;2023-05-10T00:52:48;4.30;;;2.43;;
16286;SDS011;8251;53.568;10.018;2023-05-10T00:55:16;2.93;;;2.30;;
16286;SDS011;8251;53.568;10.018;2023-05-10T00:57:43;2.80;;;2.23;;
16286;SDS011;8251;53.568;10.018;2023-05-10T01:00:11;3.63;;;2.43;;
16286;SDS011;8251;53.568;10.018;2023-05-10T01:02:43;6.73;;;2.43;;
16286;SDS011;8251;53.568;10.018;2023-05-10T01:05:10;3.50;;;2.30;;
16286;SDS011;8251;53.568;10.018;2023-05-10T01:07:37;3.40;;;2.30;;
16286;SDS011;8251;53.568;10.018;2023-05-10T01:10:06;4.30;;;2.23;;
16286;SDS011;8251;53.568;10.018;2023-05-10T01:12:34;6.97;;;2.53;;
16286;SDS011;8251;53.568;10.018;2023-05-10T01:15:04;4.07;;;2.20;;
16286;SDS011;8251;53.568;10.018;2023-05-10T01:17:32;4.33;;;2.20;;
16286;SDS011;8251;53.568;10.018;2023-05-10T01:20:00;3.40;;;2.20;;
16286;SDS011;8251;53.568;10.018;2023-05-10T01:22:47;2.07;;;1.87;;
16286;SDS011;8251;53.568;10.018;2023-05-10T01:25:34;9.17;;;2.53;;
16286;SDS011;8251;53.568;10.018;2023-05-10T01:28:25;2.57;;;2.20;;
16286;SDS011;8251;53.568;10.018;2023-05-10T01:31:30;5.43;;;2.57;;
16286;SDS011;8251;53.568;10.018;2023-05-10T01:34:25;6.47;;;2.33;;
16286;SDS011;8251;53.568;10.018;2023-05-10T01:37:02;3.50;;;2.10;;
16286;SDS011;8251;53.568;10.018;2023-05-10T01:39:36;4.53;;;2.40;;
16286;SDS011;8251;53.568;10.018;2023-05-10T01:42:11;2.27;;;1.97;;
16286;SDS011;8251;53.568;10.018;2023-05-10T01:44:45;4.60;;;2.57;;
16286;SDS011;8251;53.568;10.018;2023-05-10T01:47:22;3.63;;;2.60;;
16286;SDS011;8251;53.568;10.018;2023-05-10T01:49:54;8.27;;;2.83;;
16286;SDS011;8251;53.568;10.018;2023-05-10T01:52:24;3.40;;;2.40;;
16286;SDS011;8251;53.568;10.018;2023-05-10T01:54:58;4.83;;;2.60;;
16286;SDS011;8251;53.568;10.018;2023-05-10T01:57:32;5.17;;;2.40;;
16286;SDS011;8251;53.568;10.018;2023-05-10T02:00:01;3.07;;;2.40;;
16286;SDS011;8251;53.568;10.018;2023-05-10T02:02:30;4.67;;;2.00;;
16286;SDS011;8251;53.568;10.018;2023-05-10T02:05:03;6.93;;;2.20;;
16286;SDS011;8251;53.568;10.018;2023-05-10T02:07:32;3.17;;;2.20;;
16286;SDS011;8251;53.568;10.018;2023-05-10T02:10:02;4.10;;;2.70;;
16286;SDS011;8251;53.568;10.018;2023-05-10T02:12:32;3.00;;;2.63;;
16286;SDS011;8251;53.568;10.018;2023-05-10T02:15:04;3.33;;;2.30;;
16286;SDS011;8251;53.568;10.018;2023-05-10T02:17:34;6.97;;;2.23;;
16286;SDS011;8251;53.568;10.018;2023-05-10T02:20:03;3.67;;;2.40;;
16286;SDS011;8251;53.568;10.018;2023-05-10T02:22:32;4.77;;;2.40;;
16286;SDS011;8251;53.568;10.018;2023-05-10T02:25:01;4.00;;;2.13;;
16286;SDS011;8251;53.568;10.018;2023-05-10T02:27:30;3.63;;;2.17;;
16286;SDS011;8251;53.568;10.018;2023-05-10T02:29:57;2.77;;;2.00;;
16286;SDS011;8251;53.568;10.018;2023-05-10T02:32:26;5.77;;;2.20;;
16286;SDS011;8251;53.568;10.018;2023-05-10T02:34:56;4.03;;;2.70;;
16286;SDS011;8251;53.568;10.018;2023-05-10T02:37:24;2.63;;;2.30;;
16286;SDS011;8251;53.568;10.018;2023-05-10T02:39:53;7.07;;;2.50;;
16286;SDS011;8251;53.568;10.018;2023-05-10T02:42:23;2.70;;;2.30;;
16286;SDS011;8251;53.568;10.018;2023-05-10T02:44:53;3.20;;;2.17;;
16286;SDS011;8251;53.568;10.018;2023-05-10T02:47:22;5.70;;;3.33;;
16286;SDS011;8251;53.568;10.018;2023-05-10T02:49:49;3.00;;;2.33;;
16286;SDS011;8251;53.568;10.018;2023-05-10T02:52:19;3.20;;;2.50;;
16286;SDS011;8251;53.568;10.018;2023-05-10T02:54:50;5.07;;;2.73;;
16286;SDS011;8251;53.568;10.018;2023-05-10T02:57:22;3.77;;;2.33;;
16286;SDS011;8251;53.568;10.018;2023-05-10T02:59:53;5.30;;;2.40;;
16286;SDS011;8251;53.568;10.018;2023-05-10T03:02:21;3.13;;;2.50;;
16286;SDS011;8251;53.568;10.018;2023-05-10T03:04:48;4.90;;;2.47;;
16286;SDS011;8251;53.568;10.018;2023-05-10T03:07:15;3.13;;;2.30;;
16286;SDS011;8251;53.568;10.018;2023-05-10T03:09:45;4.77;;;2.83;;
16286;SDS011;8251;53.568;10.018;2023-05-10T03:12:14;6.43;;;2.63;;
16286;SDS011;8251;53.568;10.018;2023-05-10T03:14:49;2.90;;;2.13;;
16286;SDS011;8251;53.568;10.018;2023-05-10T03:17:24;6.53;;;2.80;;
16286;SDS011;8251;53.568;10.018;2023-05-10T03:19:56;3.40;;;2.57;;
16286;SDS011;8251;53.568;10.018;2023-05-10T03:22:30;3.33;;;2.43;;
16286;SDS011;8251;53.568;10.018;2023-05-10T03:25:03;4.53;;;2.53;;
16286;SDS011;8251;53.568;10.018;2023-05-10T03:27:34;4.13;;;2.40;;
16286;SDS011;8251;53.568;10.018;2023-05-10T03:30:05;2.87;;;2.33;;
16286;SDS011;8251;53.568;10.018;2023-05-10T03:32:34;6.70;;;2.47;;
16286;SDS011;8251;53.568;10.018;2023-05-10T03:35:01;4.50;;;2.50;;
16286;SDS011;8251;53.568;10.018;2023-05-10T03:37:32;3.93;;;2.30;;
16286;SDS011;8251;53.568;10.018;2023-05-10T03:39:59;6.40;;;2.63;;
16286;SDS011;8251;53.568;10.018;2023-05-10T03:42:28;5.10;;;2.80;;
16286;SDS011;8251;53.568;10.018;2023-05-10T03:44:55;4.83;;;2.33;;
16286;SDS011;8251;53.568;10.018;2023-05-10T03:47:22;3.70;;;2.53;;
16286;SDS011;8251;53.568;10.018;2023-05-10T03:49:50;5.17;;;2.47;;
16286;SDS011;8251;53.568;10.018;2023-05-10T03:52:16;11.90;;;2.17;;
16286;SDS011;8251;53.568;10.018;2023-05-10T03:54:44;3.33;;;2.43;;
16286;SDS011;8251;53.568;10.018;2023-05-10T03:57:12;3.57;;;2.23;;
16286;SDS011;8251;53.568;10.018;2023-05-10T03:59:39;4.47;;;2.70;;
16286;SDS011;8251;53.568;10.018;2023-05-10T04:02:06;3.43;;;2.50;;
16286;SDS011;8251;53.568;10.018;2023-05-10T04:04:33;7.17;;;3.30;;
16286;SDS011;8251;53.568;10.018;2023-05-10T04:07:00;4.57;;;2.67;;
16286;SDS011;8251;53.568;10.018;2023-05-10T04:09:27;4.43;;;2.20;;
16286;SDS011;8251;53.568;10.018;2023-05-10T04:11:53;4.73;;;2.63;;
16286;SDS011;8251;53.568;10.018;2023-05-10T04:14:22;3.60;;;2.70;;
16286;SDS011;8251;53.568;10.018;2023-05-10T04:16:49;6.00;;;2.90;;
16286;SDS011;8251;53.568;10.018;2023-05-10T04:19:15;6.13;;;3.03;;
16286;SDS011;8251;53.568;10.018;2023-05-10T04:21:42;6.10;;;3.10;;
16286;SDS011;8251;53.568;10.018;2023-05-10T04:24:10;4.33;;;2.87;;
16286;SDS011;8251;53.568;10.018;2023-05-10T04:26:37;5.20;;;3.00;;
16286;SDS011;8251;53.568;10.018;2023-05-10T04:29:04;4.07;;;2.80;;
16286;SDS011;8251;53.568;10.018;2023-05-10T04:31:32;7.77;;;3.30;;
16286;SDS011;8251;53.568;10.018;2023-05-10T04:34:01;3.93;;;2.30;;
16286;SDS011;8251;53.568;10.018;2023-05-10T04:36:28;4.20;;;2.60;;
16286;SDS011;8251;53.568;10.018;2023-05-10T04:38:55;4.57;;;2.70;;
16286;SDS011;8251;53.568;10.018;2023-05-10T04:41:22;12.20;;;3.17;;
16286;SDS011;8251;53.568;10.018;2023-05-10T04:43:49;5.37;;;2.50;;
16286;SDS011;8251;53.568;10.018;2023-05-10T04:46:17;4.93;;;2.40;;
16286;SDS011;8251;53.568;10.018;2023-05-10T04:48:46;3.33;;;2.53;;
16286;SDS011;8251;53.568;10.018;2023-05-10T04:51:12;6.17;;;2.73;;
16286;SDS011;8251;53.568;10.018;2023-05-10T04:53:39;3.53;;;3.23;;
16286;SDS011;8251;53.568;10.018;2023-05-10T04:56:06;15.13;;;3.50;;
16286;SDS011;8251;53.568;10.018;2023-05-10T04:58:33;7.43;;;2.43;;
16286;SDS011;8251;53.568;10.018;2023-05-10T05:01:04;4.23;;;2.90;;
16286;SDS011;8251;53.568;10.018;2023-05-10T05:03:32;5.10;;;2.70;;
16286;SDS011;8251;53.568;10.018;2023-05-10T05:06:01;3.53;;;2.40;;
16286;SDS011;8251;53.568;10.018;2023-05-10T05:08:28;3.10;;;2.27;;
16286;SDS011;8251;53.568;10.018;2023-05-10T05:10:55;5.27;;;2.77;;
16286;SDS011;8251;53.568;10.018;2023-05-10T05:13:22;3.63;;;2.73;;
16286;SDS011;8251;53.568;10.018;2023-05-10T05:15:49;10.07;;;3.33;;
16286;SDS011;8251;53.568;10.018;2023-05-10T05:18:16;3.60;;;2.73;;
16286;SDS011;8251;53.568;10.018;2023-05-10T05:20:43;3.30;;;2.30;;
16286;SDS011;8251;53.568;10.018;2023-05-10T05:23:11;4.37;;;2.60;;
16286;SDS011;8251;53.568;10.018;2023-05-10T05:25:38;8.13;;;2.50;;
16286;SDS011;8251;53.568;10.018;2023-05-10T05:28:05;11.73;;;3.53;;
16286;SDS011;8251;53.568;10.018;2023-05-10T05:30:32;11.47;;;3.10;;
16286;SDS011;8251;53.568;10.018;2023-05-10T05:33:01;2.90;;;2.60;;
16286;SDS011;8251;53.568;10.018;2023-05-10T05:35:34;2.77;;;2.47;;
16286;SDS011;8251;53.568;10.018;2023-05-10T05:38:00;6.83;;;2.87;;
16286;SDS011;8251;53.568;10.018;2023-05-10T05:40:29;3.50;;;2.50;;
16286;SDS011;8251;53.568;10.018;2023-05-10T05:42:56;10.47;;;3.13;;
16286;SDS011;8251;53.568;10.018;2023-05-10T05:45:22;3.23;;;2.70;;
16286;SDS011;8251;53.568;10.018;2023-05-10T05:47:49;3.80;;;3.10;;
16286;SDS011;8251;53.568;10.018;2023-05-10T05:50:17;3.20;;;2.87;;
16286;SDS011;8251;53.568;10.018;2023-05-10T05:52:43;3.23;;;2.93;;
16286;SDS011;8251;53.568;10.018;2023-05-10T05:55:10;4.63;;;3.00;;
16286;SDS011;8251;53.568;10.018;2023-05-10T05:57:39;6.90;;;2.83;;
16286;SDS011;8251;53.568;10.018;2023-05-10T06:00:06;8.50;;;2.87;;
16286;SDS011;8251;53.568;10.018;2023-05-10T06:02:34;3.10;;;2.50;;
16286;SDS011;8251;53.568;10.018;2023-05-10T06:05:00;4.33;;;2.97;;
16286;SDS011;8251;53.568;10.018;2023-05-10T06:07:27;5.80;;;3.10;;
16286;SDS011;8251;53.568;10.018;2023-05-10T06:09:56;6.43;;;3.23;;
16286;SDS011;8251;53.568;10.018;2023-05-10T06:12:28;9.93;;;2.93;;
16286;SDS011;8251;53.568;10.018;2023-05-10T06:14:56;13.53;;;3.40;;
16286;SDS011;8251;53.568;10.018;2023-05-10T06:17:23;8.03;;;3.20;;
16286;SDS011;8251;53.568;10.018;2023-05-10T06:19:50;5.53;;;2.63;;
16286;SDS011;8251;53.568;10.018;2023-05-10T06:22:17;4.43;;;2.80;;
16286;SDS011;8251;53.568;10.018;2023-05-10T06:24:44;3.23;;;2.50;;
16286;SDS011;8251;53.568;10.018;2023-05-10T06:27:11;9.53;;;3.13;;
16286;SDS011;8251;53.568;10.018;2023-05-10T06:29:38;23.10;;;4.73;;
16286;SDS011;8251;53.568;10.018;2023-05-10T06:32:07;21.23;;;4.27;;
16286;SDS011;8251;53.568;10.018;2023-05-10T06:34:35;4.03;;;2.87;;
16286;SDS011;8251;53.568;10.018;2023-05-10T06:37:02;8.80;;;3.20;;
16286;SDS011;8251;53.568;10.018;2023-05-10T06:39:30;5.03;;;2.50;;
16286;SDS011;8251;53.568;10.018;2023-05-10T06:41:56;4.67;;;2.47;;
16286;SDS011;8251;53.568;10.018;2023-05-10T06:44:27;6.07;;;2.60;;
16286;SDS011;8251;53.568;10.018;2023-05-10T06:46:55;5.83;;;3.00;;
16286;SDS011;8251;53.568;10.018;2023-05-10T06:49:24;2.87;;;2.53;;
16286;SDS011;8251;53.568;10.018;2023-05-10T06:51:51;6.47;;;3.40;;
16286;SDS011;8251;53.568;10.018;2023-05-10T06:54:18;4.20;;;3.10;;
16286;SDS011;8251;53.568;10.018;2023-05-10T06:56:44;5.57;;;3.00;;
16286;SDS011;8251;53.568;10.018;2023-05-10T06:59:17;3.47;;;2.43;;
16286;SDS011;8251;53.568;10.018;2023-05-10T07:01:48;6.53;;;3.00;;
16286;SDS011;8251;53.568;10.018;2023-05-10T07:04:19;3.27;;;2.90;;
16286;SDS011;8251;53.568;10.018;2023-05-10T07:06:47;5.00;;;2.50;;
16286;SDS011;8251;53.568;10.018;2023-05-10T07:09:14;11.43;;;3.40;;
16286;SDS011;8251;53.568;10.018;2023-05-10T07:11:41;9.30;;;2.93;;
16286;SDS011;8251;53.568;10.018;2023-05-10T07:14:08;10.07;;;2.87;;
16286;SDS011;8251;53.568;10.018;2023-05-10T07:16:37;11.73;;;2.97;;
16286;SDS011;8251;53.568;10.018;2023-05-10T07:19:08;4.50;;;3.27;;
16286;SDS011;8251;53.568;10.018;2023-05-10T07:21:39;5.70;;;2.87;;
16286;SDS011;8251;53.568;10.018;2023-05-10T07:24:09;3.87;;;3.40;;
16286;SDS011;8251;53.568;10.018;2023-05-10T07:26:36;5.47;;;2.87;;
16286;SDS011;8251;53.568;10.018;2023-05-10T07:29:03;3.40;;;2.93;;
16286;SDS011;8251;53.568;10.018;2023-05-10T07:31:30;6.00;;;3.30;;
16286;SDS011;8251;53.568;10.018;2023-05-10T07:33:57;7.43;;;2.90;;
16286;SDS011;8251;53.568;10.018;2023-05-10T07:36:24;7.23;;;3.20;;
16286;SDS011;8251;53.568;10.018;2023-05-10T07:38:51;4.73;;;2.97;;
16286;SDS011;8251;53.568;10.018;2023-05-10T07:41:20;10.10;;;2.43;;
16286;SDS011;8251;53.568;10.018;2023-05-10T07:43:47;3.23;;;2.87;;
16286;SDS011;8251;53.568;10.018;2023-05-10T07:46:14;5.93;;;3.27;;
16286;SDS011;8251;53.568;10.018;2023-05-10T07:48:41;3.80;;;3.00;;
16286;SDS011;8251;53.568;10.018;2023-05-10T07:51:08;5.10;;;3.30;;
16286;SDS011;8251;53.568;10.018;2023-05-10T07:53:35;2.93;;;2.60;;
16286;SDS011;8251;53.568;10.018;2023-05-10T07:58:52;4.97;;;2.90;;
16286;SDS011;8251;53.568;10.018;2023-05-10T08:01:20;6.37;;;3.40;;
16286;SDS011;8251;53.568;10.018;2023-05-10T08:03:46;4.20;;;2.67;;
16286;SDS011;8251;53.568;10.018;2023-05-10T08:06:14;4.90;;;2.80;;
16286;SDS011;8251;53.568;10.018;2023-05-10T08:08:41;4.53;;;3.00;;
16286;SDS011;8251;53.568;10.018;2023-05-10T08:11:10;3.77;;;2.90;;
16286;SDS011;8251;53.568;10.018;2023-05-10T08:13:39;6.37;;;3.00;;
16286;SDS011;8251;53.568;10.018;2023-05-10T08:16:06;5.27;;;3.07;;
16286;SDS011;8251;53.568;10.018;2023-05-10T08:18:32;4.67;;;2.90;;
16286;SDS011;8251;53.568;10.018;2023-05-10T08:21:00;3.97;;;2.97;;
16286;SDS011;8251;53.568;10.018;2023-05-10T08:23:27;7.30;;;3.20;;
16286;SDS011;8251;53.568;10.018;2023-05-10T08:25:54;6.90;;;3.17;;
16286;SDS011;8251;53.568;10.018;2023-05-10T08:28:20;3.63;;;3.10;;
16286;SDS011;8251;53.568;10.018;2023-05-10T08:30:49;3.53;;;2.73;;
16286;SDS011;8251;53.568;10.018;2023-05-10T08:33:17;7.10;;;3.70;;
16286;SDS011;8251;53.568;10.018;2023-05-10T08:35:44;9.23;;;3.00;;
16286;SDS011;8251;53.568;10.018;2023-05-10T08:38:11;11.60;;;3.00;;
16286;SDS011;8251;53.568;10.018;2023-05-10T08:40:39;7.90;;;2.97;;
16286;SDS011;8251;53.568;10.018;2023-05-10T08:43:09;4.00;;;2.90;;
16286;SDS011;8251;53.568;10.018;2023-05-10T08:45:38;9.13;;;3.57;;
16286;SDS011;8251;53.568;10.018;2023-05-10T08:48:07;4.97;;;2.90;;
16286;SDS011;8251;53.568;10.018;2023-05-10T08:50:36;3.00;;;2.40;;
16286;SDS011;8251;53.568;10.018;2023-05-10T08:53:04;4.27;;;3.20;;
16286;SDS011;8251;53.568;10.018;2023-05-10T08:55:33;3.33;;;2.90;;
16286;SDS011;8251;53.568;10.018;2023-05-10T08:58:01;8.13;;;3.23;;
16286;SDS011;8251;53.568;10.018;2023-05-10T09:00:29;4.23;;;2.67;;
16286;SDS011;8251;53.568;10.018;2023-05-10T09:02:56;3.10;;;2.70;;
16286;SDS011;8251;53.568;10.018;2023-05-10T09:05:26;11.10;;;3.10;;
16286;SDS011;8251;53.568;10.018;2023-05-10T09:07:53;6.07;;;3.30;;
16286;SDS011;8251;53.568;10.018;2023-05-10T09:10:20;3.10;;;2.80;;
16286;SDS011;8251;53.568;10.018;2023-05-10T09:12:51;6.10;;;2.93;;
16286;SDS011;8251;53.568;10.018;2023-05-10T09:15:18;3.47;;;3.10;;
16286;SDS011;8251;53.568;10.018;2023-05-10T09:17:46;7.50;;;3.37;;
16286;SDS011;8251;53.568;10.018;2023-05-10T09:20:15;8.17;;;3.13;;
16286;SDS011;8251;53.568;10.018;2023-05-10T09:22:43;3.87;;;3.00;;
16286;SDS011;8251;53.568;10.018;2023-05-10T09:25:11;7.10;;;3.23;;
16286;SDS011;8251;53.568;10.018;2023-05-10T09:27:40;5.20;;;3.57;;
16286;SDS011;8251;53.568;10.018;2023-05-10T09:30:10;4.57;;;3.47;;
16286;SDS011;8251;53.568;10.018;2023-05-10T09:32:42;3.63;;;3.10;;
16286;SDS011;8251;53.568;10.018;2023-05-10T09:35:12;6.70;;;3.07;;
16286;SDS011;8251;53.568;10.018;2023-05-10T09:37:40;7.33;;;3.07;;
16286;SDS011;8251;53.568;10.018;2023-05-10T09:40:12;6.13;;;2.90;;
16286;SDS011;8251;53.568;10.018;2023-05-10T09:42:42;5.17;;;3.60;;
16286;SDS011;8251;53.568;10.018;2023-05-10T09:45:17;5.80;;;3.40;;
16286;SDS011;8251;53.568;10.018;2023-05-10T09:47:47;12.30;;;3.90;;
16286;SDS011;8251;53.568;10.018;2023-05-10T09:50:15;3.90;;;3.50;;
16286;SDS011;8251;53.568;10.018;2023-05-10T09:52:47;5.67;;;3.00;;
16286;SDS011;8251;53.568;10.018;2023-05-10T09:55:17;6.10;;;4.13;;
16286;SDS011;8251;53.568;10.018;2023-05-10T09:57:46;7.07;;;4.70;;
16286;SDS011;8251;53.568;10.018;2023-05-10T10:00:18;5.27;;;3.30;;
16286;SDS011;8251;53.568;10.018;2023-05-10T10:02:53;5.93;;;3.53;;
16286;SDS011;8251;53.568;10.018;2023-05-10T10:05:27;6.77;;;4.37;;
16286;SDS011;8251;53.568;10.018;2023-05-10T10:07:55;10.10;;;4.60;;
16286;SDS011;8251;53.568;10.018;2023-05-10T10:10:24;8.10;;;4.77;;
16286;SDS011;8251;53.568;10.018;2023-05-10T10:12:53;5.93;;;4.07;;
16286;SDS011;8251;53.568;10.018;2023-05-10T10:15:23;7.57;;;3.63;;
16286;SDS011;8251;53.568;10.018;2023-05-10T10:17:51;8.80;;;3.90;;
16286;SDS011;8251;53.568;10.018;2023-05-10T10:20:19;4.37;;;3.80;;
16286;SDS011;8251;53.568;10.018;2023-05-10T10:22:47;6.40;;;3.97;;
16286;SDS011;8251;53.568;10.018;2023-05-10T10:25:15;7.40;;;4.50;;
16286;SDS011;8251;53.568;10.018;2023-05-10T10:27:45;4.83;;;3.83;;
16286;SDS011;8251;53.568;10.018;2023-05-10T10:30:21;10.77;;;6.23;;
16286;SDS011;8251;53.568;10.018;2023-05-10T10:33:06;12.80;;;7.33;;
16286;SDS011;8251;53.568;10.018;2023-05-10T10:35:44;5.13;;;4.43;;
16286;SDS011;8251;53.568;10.018;2023-05-10T10:38:12;8.40;;;4.87;;
16286;SDS011;8251;53.568;10.018;2023-05-10T10:40:40;8.77;;;4.33;;
16286;SDS011;8251;53.568;10.018;2023-05-10T10:46:10;9.37;;;4.93;;
16286;SDS011;8251;53.568;10.018;2023-05-10T10:48:38;5.90;;;4.47;;
16286;SDS011;8251;53.568;10.018;2023-05-10T10:51:06;6.43;;;4.87;;
16286;SDS011;8251;53.568;10.018;2023-05-10T10:53:33;5.43;;;4.27;;
16286;SDS011;8251;53.568;10.018;2023-05-10T10:56:07;5.93;;;4.60;;
16286;SDS011;8251;53.568;10.018;2023-05-10T10:58:38;5.20;;;4.10;;
16286;SDS011;8251;53.568;10.018;2023-05-10T11:01:09;7.00;;;4.63;;
16286;SDS011;8251;53.568;10.018;2023-05-10T11:03:38;8.23;;;4.93;;
16286;SDS011;8251;53.568;10.018;2023-05-10T11:06:05;12.73;;;4.87;;
16286;SDS011;8251;53.568;10.018;2023-05-10T11:08:41;6.20;;;4.53;;
16286;SDS011;8251;53.568;10.018;2023-05-10T11:11:09;8.33;;;4.87;;
16286;SDS011;8251;53.568;10.018;2023-05-10T11:13:43;6.67;;;4.80;;
16286;SDS011;8251;53.568;10.018;2023-05-10T11:16:16;12.00;;;7.53;;
16286;SDS011;8251;53.568;10.018;2023-05-10T11:18:51;6.30;;;5.23;;
16286;SDS011;8251;53.568;10.018;2023-05-10T11:21:20;6.23;;;4.80;;
16286;SDS011;8251;53.568;10.018;2023-05-10T11:23:48;5.77;;;5.00;;
16286;SDS011;8251;53.568;10.018;2023-05-10T11:26:16;7.47;;;5.30;;
16286;SDS011;8251;53.568;10.018;2023-05-10T11:28:45;5.60;;;4.40;;
16286;SDS011;8251;53.568;10.018;2023-05-10T11:31:17;6.30;;;4.80;;
16286;SDS011;8251;53.568;10.018;2023-05-10T11:33:45;6.83;;;5.13;;
16286;SDS011;8251;53.568;10.018;2023-05-10T11:36:13;6.30;;;4.87;;
16286;SDS011;8251;53.568;10.018;2023-05-10T11:38:41;8.60;;;5.10;;
16286;SDS011;8251;53.568;10.018;2023-05-10T11:41:09;6.00;;;5.40;;
16286;SDS011;8251;53.568;10.018;2023-05-10T11:43:39;8.67;;;6.00;;
16286;SDS011;8251;53.568;10.018;2023-05-10T11:46:10;15.37;;;5.50;;
16286;SDS011;8251;53.568;10.018;2023-05-10T11:48:38;6.00;;;4.90;;
16286;SDS011;8251;53.568;10.018;2023-05-10T11:51:06;8.77;;;4.57;;
16286;SDS011;8251;53.568;10.018;2023-05-10T11:53:33;10.93;;;5.70;;
16286;SDS011;8251;53.568;10.018;2023-05-10T11:56:04;8.60;;;5.10;;
16286;SDS011;8251;53.568;10.018;2023-05-10T11:58:32;6.87;;;5.63;;
16286;SDS011;8251;53.568;10.018;2023-05-10T12:01:00;8.60;;;5.63;;
16286;SDS011;8251;53.568;10.018;2023-05-10T12:03:29;7.10;;;5.77;;
16286;SDS011;8251;53.568;10.018;2023-05-10T12:05:57;7.33;;;5.90;;
16286;SDS011;8251;53.568;10.018;2023-05-10T12:08:26;11.23;;;5.90;;
16286;SDS011;8251;53.568;10.018;2023-05-10T12:11:03;7.87;;;5.57;;
16286;SDS011;8251;53.568;10.018;2023-05-10T12:13:31;8.17;;;5.77;;
16286;SDS011;8251;53.568;10.018;2023-05-10T12:15:58;7.77;;;5.97;;
16286;SDS011;8251;53.568;10.018;2023-05-10T12:18:25;6.90;;;5.67;;
16286;SDS011;8251;53.568;10.018;2023-05-10T12:20:54;7.40;;;5.50;;
16286;SDS011;8251;53.568;10.018;2023-05-10T12:23:29;5.97;;;5.03;;
16286;SDS011;8251;53.568;10.018;2023-05-10T12:26:01;7.67;;;5.40;;
16286;SDS011;8251;53.568;10.018;2023-05-10T12:28:29;8.00;;;4.93;;
16286;SDS011;8251;53.568;10.018;2023-05-10T12:30:57;8.30;;;5.40;;
16286;SDS011;8251;53.568;10.018;2023-05-10T12:33:25;5.60;;;4.33;;
16286;SDS011;8251;53.568;10.018;2023-05-10T12:35:58;6.07;;;5.47;;
16286;SDS011;8251;53.568;10.018;2023-05-10T12:38:26;6.10;;;5.40;;
16286;SDS011;8251;53.568;10.018;2023-05-10T12:40:57;5.63;;;4.57;;
16286;SDS011;8251;53.568;10.018;2023-05-10T12:43:24;6.03;;;5.10;;
16286;SDS011;8251;53.568;10.018;2023-05-10T12:45:51;5.63;;;4.43;;
16286;SDS011;8251;53.568;10.018;2023-05-10T12:48:20;5.30;;;4.70;;
16286;SDS011;8251;53.568;10.018;2023-05-10T12:50:46;6.23;;;5.47;;
16286;SDS011;8251;53.568;10.018;2023-05-10T12:53:15;7.13;;;5.63;;
16286;SDS011;8251;53.568;10.018;2023-05-10T12:55:42;7.03;;;5.63;;
16286;SDS011;8251;53.568;10.018;2023-05-10T12:58:09;7.57;;;5.33;;
16286;SDS011;8251;53.568;10.018;2023-05-10T13:00:36;10.67;;;5.57;;
16286;SDS011;8251;53.568;10.018;2023-05-10T13:03:04;6.07;;;4.70;;
16286;SDS011;8251;53.568;10.018;2023-05-10T13:05:31;5.00;;;4.30;;
16286;SDS011;8251;53.568;10.018;2023-05-10T13:07:58;5.57;;;4.60;;
16286;SDS011;8251;53.568;10.018;2023-05-10T13:10:27;4.77;;;4.30;;
16286;SDS011;8251;53.568;10.018;2023-05-10T13:12:55;6.10;;;4.50;;
16286;SDS011;8251;53.568;10.018;2023-05-10T13:15:22;4.33;;;3.87;;
16286;SDS011;8251;53.568;10.018;2023-05-10T13:17:49;4.83;;;4.00;;
16286;SDS011;8251;53.568;10.018;2023-05-10T13:20:16;8.13;;;5.23;;
16286;SDS011;8251;53.568;10.018;2023-05-10T13:22:43;5.37;;;4.87;;
16286;SDS011;8251;53.568;10.018;2023-05-10T13:25:11;5.87;;;4.37;;
16286;SDS011;8251;53.568;10.018;2023-05-10T13:27:40;6.57;;;4.40;;
16286;SDS011;8251;53.568;10.018;2023-05-10T13:30:07;7.97;;;5.40;;
16286;SDS011;8251;53.568;10.018;2023-05-10T13:32:34;6.53;;;4.20;;
16286;SDS011;8251;53.568;10.018;2023-05-10T13:35:02;5.00;;;4.00;;
16286;SDS011;8251;53.568;10.018;2023-05-10T13:37:29;7.53;;;4.57;;
16286;SDS011;8251;53.568;10.018;2023-05-10T13:39:57;6.40;;;4.80;;
16286;SDS011;8251;53.568;10.018;2023-05-10T13:42:24;7.03;;;5.53;;
16286;SDS011;8251;53.568;10.018;2023-05-10T13:44:52;6.57;;;5.23;;
16286;SDS011;8251;53.568;10.018;2023-05-10T13:47:19;8.13;;;5.33;;
16286;SDS011;8251;53.568;10.018;2023-05-10T13:49:46;9.60;;;6.70;;
16286;SDS011;8251;53.568;10.018;2023-05-10T13:52:13;5.67;;;5.10;;
16286;SDS011;8251;53.568;10.018;2023-05-10T13:54:40;7.13;;;5.00;;
16286;SDS011;8251;53.568;10.018;2023-05-10T13:57:07;9.50;;;5.10;;
16286;SDS011;8251;53.568;10.018;2023-05-10T13:59:36;6.40;;;5.77;;
16286;SDS011;8251;53.568;10.018;2023-05-10T14:02:05;5.97;;;5.17;;
16286;SDS011;8251;53.568;10.018;2023-05-10T14:04:32;5.50;;;4.80;;
16286;SDS011;8251;53.568;10.018;2023-05-10T14:07:00;6.53;;;5.00;;
16286;SDS011;8251;53.568;10.018;2023-05-10T14:09:27;5.10;;;4.70;;
16286;SDS011;8251;53.568;10.018;2023-05-10T14:11:55;5.70;;;4.93;;
16286;SDS011;8251;53.568;10.018;2023-05-10T14:14:22;7.07;;;4.53;;
16286;SDS011;8251;53.568;10.018;2023-05-10T14:16:51;7.70;;;4.63;;
16286;SDS011;8251;53.568;10.018;2023-05-10T14:19:26;4.40;;;4.00;;
16286;SDS011;8251;53.568;10.018;2023-05-10T14:21:59;5.17;;;4.20;;
16286;SDS011;8251;53.568;10.018;2023-05-10T14:24:26;5.17;;;4.30;;
16286;SDS011;8251;53.568;10.018;2023-05-10T14:26:53;6.43;;;4.10;;
16286;SDS011;8251;53.568;10.018;2023-05-10T14:29:23;6.13;;;3.70;;
16286;SDS011;8251;53.568;10.018;2023-05-10T14:31:51;4.83;;;3.77;;
16286;SDS011;8251;53.568;10.018;2023-05-10T14:34:18;6.90;;;4.03;;
16286;SDS011;8251;53.568;10.018;2023-05-10T14:36:47;5.23;;;4.17;;
16286;SDS011;8251;53.568;10.018;2023-05-10T14:39:15;22.27;;;4.80;;
16286;SDS011;8251;53.568;10.018;2023-05-10T14:41:42;7.10;;;4.10;;
16286;SDS011;8251;53.568;10.018;2023-05-10T14:44:09;5.63;;;4.43;;
16286;SDS011;8251;53.568;10.018;2023-05-10T14:46:37;4.70;;;4.17;;
16286;SDS011;8251;53.568;10.018;2023-05-10T14:49:04;5.70;;;4.17;;
16286;SDS011;8251;53.568;10.018;2023-05-10T14:51:31;8.63;;;3.87;;
16286;SDS011;8251;53.568;10.018;2023-05-10T14:53:59;6.90;;;5.03;;
16286;SDS011;8251;53.568;10.018;2023-05-10T14:56:27;6.50;;;4.67;;
16286;SDS011;8251;53.568;10.018;2023-05-10T14:58:54;5.27;;;4.23;;
16286;SDS011;8251;53.568;10.018;2023-05-10T15:01:21;4.80;;;3.93;;